createdAt,value
2023-05-23T00:08:21.296Z,4.15
2023-05-23T00:50:39.034Z,4.57
2023-05-23T00:56:27.674Z,3.75
2023-05-23T01:03:28.923Z,2.97
2023-05-23T01:06:01.384Z,2.90
2023-05-23T01:08:32.886Z,2.53
2023-05-23T01:11:10.655Z,2.72
2023-05-23T01:14:21.337Z,2.20
2023-05-23T01:21:43.127Z,2.30
2023-05-23T01:24:40.036Z,2.40
2023-05-23T01:31:14.738Z,2.35
2023-05-23T01:34:27.265Z,2.10
2023-05-23T01:37:46.576Z,2.05
2023-05-23T01:40:15.833Z,2.40
2023-05-23T01:42:44.104Z,2.08
2023-05-23T01:45:13.532Z,2.38
2023-05-23T01:47:43.803Z,2.53
2023-05-23T01:50:13.528Z,2.47
2023-05-23T01:52:41.525Z,2.50
2023-05-23T01:55:11.977Z,2.67
2023-05-23T01:57:40.552Z,2.60
2023-05-23T02:00:12.302Z,2.53
2023-05-23T02:02:44.897Z,2.50
2023-05-23T02:05:12.942Z,2.63
2023-05-23T02:07:41.000Z,2.88
2023-05-23T02:10:10.531Z,2.78
2023-05-23T02:12:39.360Z,2.72
2023-05-23T02:15:08.879Z,2.78
2023-05-23T02:17:38.742Z,2.85
2023-05-23T02:20:10.317Z,2.90
2023-05-23T02:22:38.187Z,2.78
2023-05-23T02:25:09.728Z,2.42
2023-05-23T02:27:37.897Z,2.40
2023-05-23T02:30:07.654Z,2.53
2023-05-23T02:32:37.702Z,2.83
2023-05-23T02:35:06.625Z,2.83
2023-05-23T02:37:35.886Z,2.80
2023-05-23T02:40:07.720Z,2.70
2023-05-23T02:42:36.844Z,2.72
2023-05-23T02:45:05.174Z,2.67
2023-05-23T02:47:33.068Z,3.17
2023-05-23T02:50:01.446Z,3.00
2023-05-23T02:52:29.757Z,2.97
2023-05-23T02:54:58.938Z,2.80
2023-05-23T02:57:27.378Z,3.20
2023-05-23T02:59:55.741Z,2.80
2023-05-23T03:02:23.813Z,2.88
2023-05-23T03:04:51.624Z,2.95
2023-05-23T03:07:27.510Z,3.38
2023-05-23T03:09:58.689Z,3.15
2023-05-23T03:12:26.630Z,3.38
2023-05-23T03:14:54.624Z,3.15
2023-05-23T03:17:23.119Z,3.47
2023-05-23T03:19:51.311Z,3.90
2023-05-23T03:22:20.261Z,3.47
2023-05-23T03:24:48.262Z,3.47
2023-05-23T03:27:17.611Z,3.40
2023-05-23T03:29:45.533Z,3.50
2023-05-23T03:32:13.838Z,3.30
2023-05-23T03:34:42.209Z,3.90
2023-05-23T03:37:12.715Z,3.70
2023-05-23T03:39:40.544Z,3.53
2023-05-23T03:42:08.944Z,3.53
2023-05-23T03:44:38.616Z,3.33
2023-05-23T03:47:08.277Z,3.50
2023-05-23T03:49:39.143Z,3.50
2023-05-23T03:52:07.515Z,3.13
2023-05-23T03:54:35.822Z,3.15
2023-05-23T03:57:03.718Z,2.65
2023-05-23T03:59:31.798Z,3.08
2023-05-23T04:02:01.502Z,3.08
2023-05-23T04:04:31.149Z,2.97
2023-05-23T04:07:01.571Z,2.83
2023-05-23T04:09:29.928Z,3.13
2023-05-23T04:11:58.657Z,3.03
2023-05-23T04:14:27.638Z,3.55
2023-05-23T04:16:56.527Z,3.03
2023-05-23T04:19:26.031Z,3.15
2023-05-23T04:21:54.084Z,3.08
2023-05-23T04:24:22.011Z,3.17
2023-05-23T04:26:50.060Z,3.35
2023-05-23T04:29:17.997Z,3.30
2023-05-23T04:31:46.822Z,3.30
2023-05-23T04:34:17.198Z,3.22
2023-05-23T04:36:46.919Z,3.20
2023-05-23T04:39:16.028Z,3.85
2023-05-23T04:41:56.899Z,3.53
2023-05-23T04:44:51.091Z,3.47
2023-05-23T04:47:28.034Z,3.42
2023-05-23T04:50:05.508Z,3.45
2023-05-23T04:52:35.121Z,3.17
2023-05-23T04:55:03.669Z,3.22
2023-05-23T04:57:31.762Z,3.55
2023-05-23T05:00:01.139Z,3.80
2023-05-23T05:02:35.164Z,3.75
2023-05-23T05:05:04.116Z,3.10
2023-05-23T05:07:32.032Z,3.42
2023-05-23T05:10:03.202Z,3.40
2023-05-23T05:12:33.321Z,3.17
2023-05-23T05:15:01.591Z,3.35
2023-05-23T05:17:30.253Z,3.40
2023-05-23T05:20:08.433Z,3.35
2023-05-23T05:22:40.330Z,3.67
2023-05-23T05:25:12.324Z,3.70
2023-05-23T05:27:41.149Z,3.88
2023-05-23T05:30:12.419Z,3.65
2023-05-23T05:32:51.641Z,3.47
2023-05-23T05:35:20.037Z,4.10
2023-05-23T05:37:48.206Z,3.55
2023-05-23T05:40:17.539Z,3.92
2023-05-23T05:42:45.605Z,3.90
2023-05-23T05:45:13.730Z,3.72
2023-05-23T05:47:43.554Z,3.65
2023-05-23T05:50:12.361Z,3.63
2023-05-23T05:52:40.497Z,4.15
2023-05-23T05:55:11.325Z,4.20
2023-05-23T05:57:42.774Z,4.30
2023-05-23T06:00:15.181Z,4.13
2023-05-23T06:02:52.601Z,4.15
2023-05-23T06:05:33.816Z,3.90
2023-05-23T06:08:02.071Z,4.35
2023-05-23T06:10:30.164Z,4.05
2023-05-23T06:12:59.488Z,4.30
2023-05-23T06:15:27.535Z,4.10
2023-05-23T06:17:55.461Z,4.03
2023-05-23T06:20:24.947Z,3.63
2023-05-23T06:22:54.184Z,3.92
2023-05-23T06:25:22.008Z,4.20
2023-05-23T06:27:50.352Z,4.25
2023-05-23T06:30:19.649Z,4.10
2023-05-23T06:32:47.789Z,4.20
2023-05-23T06:35:16.134Z,4.05
2023-05-23T06:37:45.833Z,4.13
2023-05-23T06:40:14.251Z,4.57
2023-05-23T06:42:42.379Z,4.00
2023-05-23T06:45:21.067Z,3.55
2023-05-23T06:47:49.410Z,3.80
2023-05-23T06:50:20.108Z,3.70
2023-05-23T06:52:49.976Z,3.45
2023-05-23T06:55:19.430Z,3.53
2023-05-23T06:57:52.311Z,3.97
2023-05-23T07:00:23.802Z,3.53
2023-05-23T07:03:04.234Z,3.83
2023-05-23T07:05:33.340Z,3.90
2023-05-23T07:08:01.388Z,3.65
2023-05-23T07:10:29.367Z,3.55
2023-05-23T07:13:05.078Z,3.65
2023-05-23T07:15:34.595Z,4.28
2023-05-23T07:18:12.502Z,3.75
2023-05-23T07:20:40.590Z,3.80
2023-05-23T07:23:15.652Z,3.85
2023-05-23T07:25:53.753Z,4.05
2023-05-23T07:28:32.500Z,3.97
2023-05-23T07:31:02.282Z,3.90
2023-05-23T07:33:33.567Z,3.58
2023-05-23T07:36:04.608Z,3.85
2023-05-23T07:38:32.465Z,3.95
2023-05-23T07:41:10.745Z,3.85
2023-05-23T07:43:41.328Z,3.88
2023-05-23T07:46:26.733Z,4.13
2023-05-23T07:49:04.620Z,3.80
2023-05-23T07:51:36.698Z,3.80
2023-05-23T07:54:14.522Z,4.10
2023-05-23T07:57:34.706Z,3.97
2023-05-23T08:03:25.926Z,3.53
2023-05-23T08:06:04.514Z,3.90
2023-05-23T08:08:33.099Z,3.67
2023-05-23T08:11:02.234Z,3.88
2023-05-23T08:13:39.173Z,4.20
2023-05-23T08:16:33.514Z,4.30
2023-05-23T08:19:03.197Z,4.30
2023-05-23T08:21:33.450Z,3.58
2023-05-23T08:24:03.870Z,3.88
2023-05-23T08:26:35.003Z,3.80
2023-05-23T08:29:05.646Z,3.72
2023-05-23T08:31:36.609Z,4.43
2023-05-23T08:34:08.288Z,4.87
2023-05-23T08:36:40.127Z,5.35
2023-05-23T08:39:13.825Z,5.22
2023-05-23T08:41:51.215Z,5.30
2023-05-23T08:44:19.391Z,5.07
2023-05-23T08:46:54.319Z,5.53
2023-05-23T08:49:46.281Z,5.72
2023-05-23T08:55:55.802Z,6.50
2023-05-23T08:58:30.086Z,7.05
2023-05-23T09:01:02.813Z,7.30
2023-05-23T09:03:34.220Z,7.15
2023-05-23T09:06:18.398Z,6.82
2023-05-23T09:08:46.800Z,7.25
2023-05-23T09:11:16.410Z,7.00
2023-05-23T09:13:46.299Z,7.47
2023-05-23T09:16:18.892Z,7.22
2023-05-23T09:18:57.898Z,8.13
2023-05-23T09:21:28.950Z,7.72
2023-05-23T09:24:07.246Z,5.93
2023-05-23T09:26:35.592Z,6.43
2023-05-23T09:29:07.416Z,5.57
2023-05-23T09:31:36.564Z,6.15
2023-05-23T09:34:05.292Z,6.10
2023-05-23T09:36:36.577Z,6.20
2023-05-23T09:39:06.473Z,5.38
2023-05-23T09:41:35.316Z,4.32
2023-05-23T09:44:07.462Z,4.30
2023-05-23T09:46:38.050Z,3.25
2023-05-23T09:49:19.813Z,3.65
2023-05-23T09:52:00.808Z,4.50
2023-05-23T09:54:29.051Z,5.85
2023-05-23T09:57:01.317Z,6.05
2023-05-23T09:59:32.799Z,4.95
2023-05-23T10:02:03.701Z,4.85
2023-05-23T10:04:37.177Z,4.97
2023-05-23T10:07:15.916Z,4.28
2023-05-23T10:09:51.690Z,4.75
2023-05-23T10:13:03.130Z,6.05
2023-05-23T10:15:36.838Z,7.60
2023-05-23T10:18:09.311Z,6.03
2023-05-23T10:20:41.226Z,4.82
2023-05-23T10:23:11.856Z,5.40
2023-05-23T10:25:42.139Z,4.80
2023-05-23T10:28:12.362Z,4.03
2023-05-23T10:30:41.846Z,4.30
2023-05-23T10:33:12.064Z,5.03
2023-05-23T10:35:49.118Z,5.78
2023-05-23T10:38:38.025Z,7.38
2023-05-23T10:41:13.681Z,6.75
2023-05-23T10:43:48.415Z,6.15
2023-05-23T10:46:16.913Z,4.78
2023-05-23T10:48:45.903Z,4.40
2023-05-23T10:51:17.458Z,3.50
2023-05-23T10:53:50.293Z,3.58
2023-05-23T10:56:23.965Z,3.00
2023-05-23T10:58:55.079Z,3.30
2023-05-23T11:01:23.917Z,3.15
2023-05-23T11:03:55.267Z,2.92
2023-05-23T11:06:33.274Z,3.17
2023-05-23T11:09:10.419Z,3.75
2023-05-23T11:12:05.413Z,4.00
2023-05-23T11:14:55.781Z,5.47
2023-05-23T11:17:34.721Z,6.15
2023-05-23T11:20:07.311Z,5.60
2023-05-23T11:25:10.696Z,5.60
2023-05-23T11:27:42.096Z,5.68
2023-05-23T11:30:13.645Z,5.50
2023-05-23T11:32:43.186Z,4.35
2023-05-23T11:35:12.248Z,4.35
2023-05-23T11:37:40.874Z,4.20
2023-05-23T11:40:31.134Z,3.83
2023-05-23T11:43:00.074Z,4.32
2023-05-23T11:45:29.560Z,4.15
2023-05-23T11:47:57.888Z,3.42
2023-05-23T11:50:26.444Z,3.17
2023-05-23T11:52:56.511Z,2.83
2023-05-23T11:55:25.087Z,2.92
2023-05-23T11:57:57.771Z,3.42
2023-05-23T12:02:54.251Z,3.30
2023-05-23T12:05:22.545Z,3.40
2023-05-23T12:07:51.228Z,3.45
2023-05-23T12:10:22.508Z,3.42
2023-05-23T12:12:54.629Z,3.38
2023-05-23T12:15:29.268Z,3.55
2023-05-23T12:17:58.289Z,3.42
2023-05-23T12:20:28.069Z,3.75
2023-05-23T12:22:58.925Z,3.50
2023-05-23T12:25:28.102Z,3.27
2023-05-23T12:27:58.284Z,3.47
2023-05-23T12:30:26.509Z,3.25
2023-05-23T12:32:54.583Z,3.65
2023-05-23T12:35:22.774Z,3.60
2023-05-23T12:37:50.987Z,3.45
2023-05-23T12:40:21.574Z,3.40
2023-05-23T12:42:55.504Z,2.83
2023-05-23T12:45:38.814Z,3.15
2023-05-23T12:48:08.712Z,3.15
2023-05-23T12:50:37.001Z,3.40
2023-05-23T12:53:05.133Z,4.18
2023-05-23T12:55:34.406Z,5.00
2023-05-23T12:58:02.587Z,5.38
2023-05-23T13:00:32.136Z,5.72
2023-05-23T13:03:00.309Z,4.68
2023-05-23T13:05:28.764Z,4.38
2023-05-23T13:07:59.532Z,4.55
2023-05-23T13:10:29.507Z,4.65
2023-05-23T13:12:59.201Z,4.00
2023-05-23T13:15:27.378Z,4.90
2023-05-23T13:18:00.208Z,4.88
2023-05-23T13:20:30.204Z,5.88
2023-05-23T13:22:58.703Z,6.47
2023-05-23T13:25:27.577Z,5.82
2023-05-23T13:27:57.857Z,5.85
2023-05-23T13:30:26.877Z,5.65
2023-05-23T13:32:58.098Z,5.10
2023-05-23T13:35:27.860Z,4.38
2023-05-23T13:37:56.219Z,5.50
2023-05-23T13:40:24.620Z,5.55
2023-05-23T13:42:53.691Z,4.65
2023-05-23T13:45:23.087Z,4.60
2023-05-23T13:47:51.242Z,3.88
2023-05-23T13:50:19.411Z,3.58
2023-05-23T13:52:49.671Z,3.22
2023-05-23T13:55:18.781Z,3.75
2023-05-23T13:57:47.198Z,4.90
2023-05-23T14:00:16.158Z,5.78
2023-05-23T14:02:44.294Z,4.72
2023-05-23T14:05:12.466Z,5.10
2023-05-23T14:07:41.259Z,5.15
2023-05-23T14:10:12.054Z,4.15
2023-05-23T14:12:39.972Z,3.33
2023-05-23T14:15:09.097Z,3.03
2023-05-23T14:17:37.151Z,2.78
2023-05-23T14:20:05.735Z,2.45
2023-05-23T14:22:33.692Z,2.67
2023-05-23T14:25:01.753Z,3.05
2023-05-23T14:27:31.509Z,3.30
2023-05-23T14:29:59.396Z,3.53
2023-05-23T14:32:27.723Z,3.15
2023-05-23T14:34:56.597Z,3.33
2023-05-23T14:37:29.035Z,3.78
2023-05-23T14:39:57.686Z,3.92
2023-05-23T14:42:26.602Z,3.40
2023-05-23T14:44:56.759Z,3.03
2023-05-23T14:47:34.201Z,2.85
2023-05-23T14:50:04.282Z,2.67
2023-05-23T14:52:32.984Z,3.25
2023-05-23T14:55:02.348Z,2.25
2023-05-23T14:57:32.625Z,2.90
2023-05-23T15:00:05.905Z,2.83
2023-05-23T15:02:35.236Z,2.47
2023-05-23T15:05:04.943Z,2.45
2023-05-23T15:07:33.147Z,2.83
2023-05-23T15:10:02.439Z,3.13
2023-05-23T15:12:30.701Z,3.40
2023-05-23T15:15:04.019Z,2.75
2023-05-23T15:17:34.274Z,3.30
2023-05-23T15:20:05.984Z,3.35
2023-05-23T15:22:38.786Z,3.70
2023-05-23T15:25:09.243Z,3.65
2023-05-23T15:27:37.326Z,3.35
2023-05-23T15:30:06.292Z,3.28
2023-05-23T15:32:35.862Z,3.65
2023-05-23T15:35:05.325Z,3.55
2023-05-23T15:37:36.464Z,3.40
2023-05-23T15:40:05.552Z,3.60
2023-05-23T15:42:33.799Z,3.72
2023-05-23T15:45:01.919Z,3.20
2023-05-23T15:47:30.307Z,2.95
2023-05-23T15:50:00.217Z,2.60
2023-05-23T15:52:28.336Z,3.00
2023-05-23T15:54:57.156Z,3.10
2023-05-23T15:57:27.976Z,3.80
2023-05-23T15:59:56.077Z,3.55
2023-05-23T16:02:24.183Z,3.10
2023-05-23T16:04:52.305Z,2.95
2023-05-23T16:07:21.921Z,2.78
2023-05-23T16:09:50.101Z,2.67
2023-05-23T16:12:21.586Z,2.40
2023-05-23T16:14:50.211Z,2.35
2023-05-23T16:17:18.317Z,2.38
2023-05-23T16:19:46.611Z,2.03
2023-05-23T16:22:14.904Z,2.47
2023-05-23T16:24:44.666Z,2.22
2023-05-23T16:27:38.739Z,2.47
2023-05-23T16:30:11.786Z,2.28
2023-05-23T16:32:44.485Z,2.22
2023-05-23T16:35:14.745Z,2.33
2023-05-23T16:37:44.738Z,2.03
2023-05-23T16:40:18.845Z,2.45
2023-05-23T16:46:05.563Z,2.28
2023-05-23T16:48:36.399Z,2.53
2023-05-23T16:51:05.234Z,2.55
2023-05-23T16:53:33.224Z,3.00
2023-05-23T16:56:04.357Z,3.35
2023-05-23T16:58:36.010Z,3.05
2023-05-23T17:01:04.168Z,2.90
2023-05-23T17:03:32.335Z,2.15
2023-05-23T17:06:00.938Z,1.85
2023-05-23T17:08:28.909Z,1.92
2023-05-23T17:10:56.951Z,2.03
2023-05-23T17:13:26.505Z,1.73
2023-05-23T17:15:54.740Z,2.28
2023-05-23T17:18:23.395Z,2.42
2023-05-23T17:20:51.545Z,3.03
2023-05-23T17:23:19.805Z,3.38
2023-05-23T17:25:48.211Z,2.75
2023-05-23T17:28:16.522Z,2.50
2023-05-23T17:30:46.177Z,2.92
2023-05-23T17:33:14.262Z,3.28
2023-05-23T17:35:42.545Z,2.90
2023-05-23T17:38:10.677Z,3.15
2023-05-23T17:40:38.871Z,2.80
2023-05-23T17:43:07.359Z,2.67
2023-05-23T17:45:36.133Z,2.85
2023-05-23T17:48:07.812Z,2.42
2023-05-23T17:50:35.965Z,2.72
2023-05-23T17:53:04.420Z,2.08
2023-05-23T17:55:32.559Z,2.20
2023-05-23T17:58:01.208Z,1.77
2023-05-23T18:00:29.173Z,1.98
2023-05-23T18:02:57.091Z,1.80
2023-05-23T18:05:26.721Z,2.05
2023-05-23T18:07:54.533Z,2.10
2023-05-23T18:10:22.501Z,2.60
2023-05-23T18:12:51.706Z,2.03
2023-05-23T18:15:20.558Z,2.35
2023-05-23T18:17:51.740Z,2.38
2023-05-23T18:20:27.660Z,2.22
2023-05-23T18:23:01.723Z,2.35
2023-05-23T18:25:30.188Z,1.80
2023-05-23T18:27:59.986Z,2.88
2023-05-23T18:30:28.716Z,2.03
2023-05-23T18:32:57.102Z,1.85
2023-05-23T18:35:25.834Z,2.00
2023-05-23T18:37:54.427Z,2.20
2023-05-23T18:40:26.484Z,2.00
2023-05-23T18:42:54.689Z,2.05
2023-05-23T18:45:22.817Z,2.20
2023-05-23T18:47:51.198Z,2.00
2023-05-23T18:50:20.440Z,1.83
2023-05-23T18:52:49.056Z,1.63
2023-05-23T18:55:17.860Z,1.80
2023-05-23T18:57:47.501Z,2.00
2023-05-23T19:00:20.499Z,2.13
2023-05-23T19:02:49.482Z,1.98
2023-05-23T19:05:17.762Z,2.10
2023-05-23T19:07:45.856Z,2.10
2023-05-23T19:10:13.732Z,1.85
2023-05-23T19:12:45.053Z,2.05
2023-05-23T19:15:15.064Z,2.10
2023-05-23T19:17:43.077Z,2.05
2023-05-23T19:20:12.046Z,2.00
2023-05-23T19:22:50.974Z,2.33
2023-05-23T19:25:20.541Z,1.92
2023-05-23T19:27:48.880Z,2.08
2023-05-23T19:30:18.826Z,1.70
2023-05-23T19:32:46.962Z,2.15
2023-05-23T19:35:17.503Z,2.10
2023-05-23T19:37:45.859Z,2.03
2023-05-23T19:40:14.591Z,2.10
2023-05-23T19:42:43.001Z,2.00
2023-05-23T19:45:12.034Z,2.10
2023-05-23T19:47:41.461Z,1.90
2023-05-23T19:50:11.960Z,1.75
2023-05-23T19:52:39.866Z,1.67
2023-05-23T19:55:08.427Z,1.60
2023-05-23T19:57:36.432Z,1.70
2023-05-23T20:00:05.762Z,1.55
2023-05-23T20:02:34.284Z,1.77
2023-05-23T20:05:03.581Z,1.58
2023-05-23T20:07:31.571Z,1.80
2023-05-23T20:09:59.415Z,1.83
2023-05-23T20:12:27.328Z,1.98
2023-05-23T20:14:55.733Z,1.65
2023-05-23T20:17:24.072Z,1.83
2023-05-23T20:19:51.961Z,1.90
2023-05-23T20:22:21.315Z,1.73
2023-05-23T20:24:49.350Z,1.98
2023-05-23T20:27:19.870Z,1.60
2023-05-23T20:29:48.043Z,1.88
2023-05-23T20:32:16.672Z,1.88
2023-05-23T20:34:44.604Z,2.30
2023-05-23T20:37:15.463Z,1.90
2023-05-23T20:39:45.107Z,1.85
2023-05-23T20:42:15.230Z,2.30
2023-05-23T20:44:44.676Z,2.03
2023-05-23T20:47:13.430Z,1.95
2023-05-23T20:49:42.367Z,1.73
2023-05-23T20:52:10.331Z,2.05
2023-05-23T20:54:38.226Z,1.90
2023-05-23T20:57:07.809Z,2.08
2023-05-23T20:59:35.951Z,1.98
2023-05-23T21:02:04.880Z,2.00
2023-05-23T21:04:35.653Z,1.90
2023-05-23T21:07:03.923Z,2.05
2023-05-23T21:09:31.787Z,2.00
2023-05-23T21:12:10.857Z,1.70
2023-05-23T21:14:38.769Z,1.95
2023-05-23T21:17:06.640Z,1.92
2023-05-23T21:19:34.647Z,1.90
2023-05-23T21:22:02.661Z,2.10
2023-05-23T21:24:30.762Z,2.33
2023-05-23T21:26:58.597Z,2.60
2023-05-23T21:29:27.815Z,2.33
2023-05-23T21:31:55.861Z,2.10
2023-05-23T21:34:26.127Z,2.60
2023-05-23T21:36:54.136Z,2.45
2023-05-23T21:39:21.980Z,2.10
2023-05-23T21:41:50.213Z,2.22
2023-05-23T21:44:18.886Z,2.00
2023-05-23T21:46:48.534Z,2.03
2023-05-23T21:49:16.846Z,1.80
2023-05-23T21:51:45.142Z,1.98
2023-05-23T21:54:13.273Z,2.20
2023-05-23T21:56:41.515Z,2.40
2023-05-23T21:59:09.496Z,2.10
2023-05-23T22:01:37.654Z,1.90
2023-05-23T22:04:07.261Z,1.90
2023-05-23T22:06:35.253Z,2.10
2023-05-23T22:09:03.331Z,1.83
2023-05-23T22:11:34.208Z,1.83
2023-05-23T22:14:02.782Z,2.05
2023-05-23T22:16:33.095Z,1.77
2023-05-23T22:19:02.138Z,1.70
2023-05-23T22:21:33.036Z,1.67
2023-05-23T22:24:01.043Z,1.80
2023-05-23T22:26:29.158Z,1.55
2023-05-23T22:28:57.144Z,1.88
2023-05-23T22:31:25.301Z,1.70
2023-05-23T22:33:53.368Z,2.25
2023-05-23T22:36:22.344Z,1.80
2023-05-23T22:38:51.693Z,1.50
2023-05-23T22:41:19.696Z,1.60
2023-05-23T22:43:48.131Z,2.45
2023-05-23T22:46:15.987Z,1.73
2023-05-23T22:48:45.114Z,1.42
2023-05-23T22:51:14.600Z,1.60
2023-05-23T22:53:43.266Z,1.60
2023-05-23T22:56:12.638Z,1.73
2023-05-23T22:58:40.682Z,1.60
2023-05-23T23:01:08.735Z,1.73
2023-05-23T23:03:36.754Z,1.88
2023-05-23T23:06:06.218Z,1.50
2023-05-23T23:08:34.393Z,1.95
2023-05-23T23:11:02.369Z,1.45
2023-05-23T23:13:31.884Z,1.40
2023-05-23T23:15:59.697Z,1.50
2023-05-23T23:18:27.853Z,1.70
2023-05-23T23:20:55.727Z,1.45
2023-05-23T23:23:23.585Z,1.70
2023-05-23T23:25:52.120Z,1.60
2023-05-23T23:28:20.850Z,1.45
2023-05-23T23:30:50.123Z,1.40
2023-05-23T23:33:18.058Z,1.45
2023-05-23T23:35:48.509Z,1.55
2023-05-23T23:38:17.484Z,1.58
2023-05-23T23:40:45.683Z,1.50
2023-05-23T23:43:13.928Z,1.52
2023-05-23T23:45:41.803Z,1.30
2023-05-23T23:48:11.327Z,1.50
2023-05-23T23:50:39.230Z,1.55
2023-05-23T23:53:07.744Z,1.80
2023-05-23T23:55:35.627Z,1.33
2023-05-23T23:58:03.510Z,1.60
